• Join FlightAware (Why Join?)
  • Login
  • US Flag 
12:58AM EDT


 

Airport Tracker/Info


-or-


 

Live Flight TrackerFlight Track Log ✈ CSN3614 ✈ 06-Feb-2014 ✈ ZYMD / MDG - ZSPD / PVG

Flight Track Log - Related Links

Times and Time Zones

All times are in EST time to prevent confusion due to time zone crossing. See the CSN3614 flight status page for this flight to view local times or setup timezone preferences in your user account.

Time Position Orientation Groundspeed Altitude Reporting Facility
EST Latitude Longitude Course Direction KTS MPH feet Rate Location/Type
03:33AM 44.1223 129.2823 207° Southwest  Level Estimated
03:34AM 44.0419 129.2255 207° Southwest  Level Estimated
03:35AM 43.9615 129.1688 207° Southwest  Level Estimated
03:36AM 43.8810 129.1122 207° Southwest  Level Estimated
03:37AM 43.8005 129.0558 207° Southwest  Level Estimated
03:38AM 43.7199 128.9996 207° Southwest  Level Estimated
03:39AM 43.6394 128.9435 207° Southwest  Level Estimated
03:40AM 43.5588 128.8876 207° Southwest  Level Estimated
03:41AM 43.4781 128.8318 207° Southwest  Level Estimated
03:42AM 43.3975 128.7761 207° Southwest  Level Estimated
03:43AM 43.3168 128.7206 207° Southwest  Level Estimated
03:44AM 43.2361 128.6653 207° Southwest  Level Estimated
03:45AM 43.1554 128.6101 207° Southwest  Level Estimated
03:46AM 43.0746 128.5550 206° Southwest  Level Estimated
03:47AM 42.9938 128.5001 206° Southwest  Level Estimated
03:48AM 42.9130 128.4453 206° Southwest  Level Estimated
03:49AM 42.8322 128.3907 206° Southwest  Level Estimated
03:50AM 42.7513 128.3362 206° Southwest  Level Estimated
03:51AM 42.6704 128.2819 206° Southwest  Level Estimated
03:52AM 42.5895 128.2277 206° Southwest  Level Estimated
03:53AM 42.5086 128.1736 206° Southwest  Level Estimated
03:54AM 42.4276 128.1197 206° Southwest  Level Estimated
03:55AM 42.3466 128.0659 206° Southwest  Level Estimated
03:56AM 42.2656 128.0123 206° Southwest  Level Estimated
03:57AM 42.1846 127.9588 206° Southwest  Level Estimated
03:58AM 42.1035 127.9054 206° Southwest  Level Estimated
03:59AM 42.0224 127.8522 206° Southwest  Level Estimated
04:00AM 41.9413 127.7991 206° Southwest  Level Estimated
04:01AM 41.8602 127.7462 206° Southwest  Level Estimated
04:02AM 41.7790 127.6933 206° Southwest  Level Estimated
04:03AM 41.6978 127.6406 206° Southwest  Level Estimated
04:04AM 41.6166 127.5881 206° Southwest  Level Estimated
04:05AM 41.5354 127.5357 206° Southwest  Level Estimated
04:06AM 41.4541 127.4834 206° Southwest  Level Estimated
04:07AM 41.3728 127.4312 206° Southwest  Level Estimated
04:08AM 41.2915 127.3792 206° Southwest  Level Estimated
04:09AM 41.2102 127.3273 206° Southwest  Level Estimated
04:10AM 41.1289 127.2755 206° Southwest  Level Estimated
04:11AM 41.0475 127.2238 206° Southwest  Level Estimated
04:12AM 40.9661 127.1723 206° Southwest  Level Estimated
04:13AM 40.8847 127.1209 206° Southwest  Level Estimated
04:14AM 40.8032 127.0697 205° Southwest  Level Estimated
04:15AM 40.7218 127.0185 205° Southwest  Level Estimated
04:16AM 40.6403 126.9675 205° Southwest  Level Estimated
04:17AM 40.5588 126.9166 205° Southwest  Level Estimated
04:18AM 40.4772 126.8659 205° Southwest  Level Estimated
04:19AM 40.3957 126.8152 205° Southwest  Level Estimated
04:20AM 40.3141 126.7647 205° Southwest  Level Estimated
04:21AM 40.2325 126.7143 205° Southwest  Level Estimated
04:22AM 40.1509 126.6640 205° Southwest  Level Estimated
04:23AM 40.0692 126.6139 205° Southwest  Level Estimated
04:24AM 39.9876 126.5638 205° Southwest  Level Estimated
04:25AM 39.9059 126.5139 205° Southwest  Level Estimated
04:26AM 39.8242 126.4641 205° Southwest  Level Estimated
04:27AM 39.7425 126.4144 205° Southwest  Level Estimated
04:28AM 39.6607 126.3649 205° Southwest  Level Estimated
04:29AM 39.5789 126.3154 205° Southwest  Level Estimated
04:30AM 39.4972 126.2661 205° Southwest  Level Estimated
04:31AM 39.4153 126.2169 205° Southwest  Level Estimated
04:32AM 39.3335 126.1678 205° Southwest  Level Estimated
04:33AM 39.2517 126.1188 205° Southwest  Level Estimated
04:34AM 39.1698 126.0699 205° Southwest  Level Estimated
04:35AM 39.0879 126.0212 205° Southwest  Level Estimated
04:36AM 39.0060 125.9725 205° Southwest  Level Estimated
04:37AM 38.9241 125.9240 205° Southwest  Level Estimated
04:38AM 38.8421 125.8756 205° Southwest  Level Estimated
04:39AM 38.7601 125.8273 205° Southwest  Level Estimated
04:40AM 38.6782 125.7791 205° Southwest  Level Estimated
04:41AM 38.5961 125.7310 205° Southwest  Level Estimated
04:42AM 38.5141 125.6830 205° Southwest  Level Estimated
04:43AM 38.4321 125.6351 205° Southwest  Level Estimated
04:44AM 38.3500 125.5874 205° Southwest  Level Estimated
04:45AM 38.2679 125.5397 205° Southwest  Level Estimated
04:46AM 38.1858 125.4922 204° Southwest  Level Estimated
04:47AM 38.1037 125.4448 204° Southwest  Level Estimated
04:48AM 38.0215 125.3974 204° Southwest  Level Estimated
04:49AM 37.9393 125.3502 204° Southwest  Level Estimated
04:50AM 37.8572 125.3031 204° Southwest  Level Estimated
04:51AM 37.7749 125.2561 204° Southwest  Level Estimated
04:52AM 37.6927 125.2092 204° Southwest  Level Estimated
04:53AM 37.6105 125.1624 204° Southwest  Level Estimated
04:54AM 37.5282 125.1157 204° Southwest  Level Estimated
04:55AM 37.4459 125.0691 204° Southwest  Level Estimated
04:56AM 37.3636 125.0226 204° Southwest  Level Estimated
04:57AM 37.2813 124.9762 204° Southwest  Level Estimated
04:58AM 37.1990 124.9299 204° Southwest  Level Estimated
04:59AM 37.1166 124.8837 204° Southwest  Level Estimated
05:00AM 37.0343 124.8376 204° Southwest  Level Estimated
05:01AM 36.9519 124.7916 204° Southwest  Level Estimated
05:02AM 36.8695 124.7458 204° Southwest  Level Estimated
05:03AM 36.7870 124.7000 204° Southwest  Level Estimated
05:04AM 36.7046 124.6543 204° Southwest  Level Estimated
05:05AM 36.6222 124.6087 204° Southwest  Level Estimated
05:06AM 36.5397 124.5632 204° Southwest  Level Estimated
05:07AM 36.4572 124.5178 204° Southwest  Level Estimated
05:08AM 36.3747 124.4725 204° Southwest  Level Estimated
05:09AM 36.2921 124.4273 204° Southwest  Level Estimated
05:10AM 36.2096 124.3822 204° Southwest  Level Estimated
05:11AM 36.1270 124.3371 204° Southwest  Level Estimated
05:12AM 36.0445 124.2922 204° Southwest  Level Estimated
05:13AM 35.9619 124.2474 204° Southwest  Level Estimated
05:14AM 35.8793 124.2027 204° Southwest  Level Estimated
05:15AM 35.7966 124.1580 204° Southwest  Level Estimated
05:16AM 35.7140 124.1135 204° Southwest  Level Estimated
05:17AM 35.6313 124.0690 204° Southwest  Level Estimated
05:18AM 35.5486 124.0246 204° Southwest  Level Estimated
05:19AM 35.4660 123.9804 204° Southwest  Level Estimated
05:20AM 35.3833 123.9362 204° Southwest  Level Estimated
05:21AM 35.3005 123.8921 204° Southwest  Level Estimated
05:22AM 35.2178 123.8481 203° Southwest  Level Estimated
05:23AM 35.1350 123.8042 203° Southwest  Level Estimated
05:24AM 35.0523 123.7604 203° Southwest  Level Estimated
05:25AM 34.9695 123.7166 203° Southwest  Level Estimated
05:26AM 34.8867 123.6730 203° Southwest  Level Estimated
05:27AM 34.8038 123.6294 203° Southwest  Level Estimated
05:28AM 34.7210 123.5860 203° Southwest  Level Estimated
05:29AM 34.6382 123.5426 203° Southwest  Level Estimated
05:30AM 34.5553 123.4993 203° Southwest  Level Estimated
05:31AM 34.4724 123.4561 203° Southwest  Level Estimated
05:32AM 34.3895 123.4129 203° Southwest  Level Estimated
05:33AM 34.3066 123.3699 203° Southwest  Level Estimated
05:34AM 34.2237 123.3269 203° Southwest  Level Estimated
05:35AM 34.1407 123.2841 203° Southwest  Level Estimated
05:36AM 34.0578 123.2413 203° Southwest  Level Estimated
05:37AM 33.9748 123.1986 203° Southwest  Level Estimated
05:38AM 33.8918 123.1560 203° Southwest  Level Estimated
05:39AM 33.8088 123.1134 203° Southwest  Level Estimated
05:40AM 33.7258 123.0710 203° Southwest  Level Estimated
05:41AM 33.6428 123.0286 203° Southwest  Level Estimated
05:42AM 33.5597 122.9863 203° Southwest  Level Estimated
05:43AM 33.4767 122.9441 203° Southwest  Level Estimated
05:44AM 33.3936 122.9020 203° Southwest  Level Estimated
05:45AM 33.3105 122.8599 203° Southwest  Level Estimated
05:46AM 33.2274 122.8179 203° Southwest  Level Estimated
05:47AM 33.1443 122.7761 203° Southwest  Level Estimated
05:48AM 33.0612 122.7343 203° Southwest  Level Estimated
05:49AM 32.9780 122.6925 203° Southwest  Level Estimated
05:50AM 32.8949 122.6509 203° Southwest  Level Estimated
05:51AM 32.8117 122.6093 203° Southwest  Level Estimated
05:52AM 32.7285 122.5678 203° Southwest  Level Estimated
05:53AM 32.6453 122.5264 203° Southwest  Level Estimated
05:54AM 32.5621 122.4850 203° Southwest  Level Estimated
05:55AM 32.4789 122.4438 203° Southwest  Level Estimated
05:56AM 32.3957 122.4026 203° Southwest  Level Estimated
05:57AM 32.3124 122.3615 203° Southwest  Level Estimated
05:58AM 32.2291 122.3204 203° Southwest  Level Estimated
05:59AM 32.1459 122.2795 203° Southwest  Level Estimated
06:00AM 32.0626 122.2386 203° Southwest  Level Estimated
06:01AM 31.9793 122.1978 203° Southwest  Level Estimated
06:02AM 31.8960 122.1570 203° Southwest  Level Estimated
06:03AM 31.8126 122.1164 203° Southwest  Level Estimated
06:04AM 31.7293 122.0758 203° Southwest  Level Estimated
06:05AM 31.6459 122.0353 202° Southwest  Level Estimated
06:06AM 31.5626 121.9948 202° Southwest  Level Estimated
06:07AM 31.4792 121.9545 202° Southwest  Level Estimated
06:08AM 31.3958 121.9141 202° Southwest  Level Estimated
06:09AM 31.3124 121.8739 202° Southwest  Level Estimated
06:10AM 31.2290 121.8338 202° Southwest  Level Estimated
06:11AM 31.1455 121.7937 202° Southwest  Level Estimated
06:12AM 31.1428 121.7924 202° Southwest  Level Estimated
06:13AM 31.1428 121.7924 221° Southwest  Level Estimated
06:14AM 31.1428 121.7924 221° Southwest  Level Estimated
06:15AM 31.1428 121.7924 221° Southwest  Level Estimated
06:16AM 31.1428 121.7924 221° Southwest  Level Estimated
06:17AM 31.1428 121.7924 221° Southwest  Level Estimated
06:18AM 31.1428 121.7924 221° Southwest  Level Estimated
06:19AM 31.1428 121.7924 221° Southwest  Level Estimated
06:20AM 31.1428 121.7924 221° Southwest  Level Estimated
06:21AM 31.1428 121.7924 221° Southwest  Level Estimated
06:22AM 31.1428 121.7924 221° Southwest  Level Estimated
06:23AM 31.1428 121.7924 221° Southwest  Level Estimated
06:24AM 31.1428 121.7924 221° Southwest  Level Estimated